createdAt,value
2023-01-31T00:00:49.713Z,44.27
2023-01-31T00:03:22.964Z,44.28
2023-01-31T00:05:55.821Z,44.28
2023-01-31T00:08:28.876Z,44.26
2023-01-31T00:11:01.669Z,44.30
2023-01-31T00:13:34.966Z,44.27
2023-01-31T00:16:07.848Z,44.29
2023-01-31T00:18:40.985Z,44.35
2023-01-31T00:21:14.811Z,44.39
2023-01-31T00:23:47.813Z,44.31
2023-01-31T00:26:21.010Z,44.32
2023-01-31T00:28:53.904Z,44.31
2023-01-31T00:31:27.049Z,44.29
2023-01-31T00:33:59.818Z,44.27
2023-01-31T00:36:32.953Z,44.36
2023-01-31T00:39:05.875Z,44.35
2023-01-31T00:41:39.422Z,44.43
2023-01-31T00:44:11.745Z,44.40
2023-01-31T00:46:44.966Z,44.47
2023-01-31T00:49:17.889Z,44.47
2023-01-31T00:51:50.877Z,44.54
2023-01-31T00:54:23.846Z,44.55
2023-01-31T00:56:56.961Z,44.71
2023-01-31T00:59:29.952Z,44.66
2023-01-31T01:02:06.691Z,44.84
2023-01-31T01:04:39.965Z,44.77
2023-01-31T01:07:12.862Z,44.68
2023-01-31T01:09:45.881Z,44.80
2023-01-31T01:12:33.138Z,44.75
2023-01-31T01:15:06.039Z,44.79
2023-01-31T01:17:40.009Z,44.81
2023-01-31T01:20:12.938Z,44.85
2023-01-31T01:22:45.782Z,44.93
2023-01-31T01:25:19.468Z,44.83
2023-01-31T01:27:52.935Z,44.83
2023-01-31T01:30:25.994Z,44.91
2023-01-31T01:32:59.025Z,44.93
2023-01-31T01:35:31.915Z,44.92
2023-01-31T01:38:04.978Z,44.95
2023-01-31T01:40:37.795Z,44.95
2023-01-31T01:43:10.939Z,44.92
2023-01-31T01:45:45.112Z,44.95
2023-01-31T01:48:18.062Z,44.99
2023-01-31T01:50:50.912Z,45.07
2023-01-31T01:53:23.936Z,45.01
2023-01-31T01:55:57.044Z,45.02
2023-01-31T01:58:30.147Z,44.99
2023-01-31T02:01:03.137Z,45.04
2023-01-31T02:03:36.103Z,45.01
2023-01-31T02:06:09.063Z,44.97
2023-01-31T02:08:42.004Z,44.98
2023-01-31T02:11:15.120Z,45.02
2023-01-31T02:13:48.092Z,44.98
2023-01-31T02:16:21.075Z,45.01
2023-01-31T02:18:53.946Z,45.00
2023-01-31T02:21:27.406Z,45.05
2023-01-31T02:24:00.098Z,45.10
2023-01-31T02:26:33.140Z,45.10
2023-01-31T02:29:06.005Z,45.06
2023-01-31T02:31:39.172Z,45.05
2023-01-31T02:34:12.029Z,45.06
2023-01-31T02:36:45.010Z,45.13
2023-01-31T02:39:18.006Z,45.13
2023-01-31T02:41:51.125Z,45.14
2023-01-31T02:44:24.104Z,45.21
2023-01-31T02:46:57.125Z,45.19
2023-01-31T02:49:30.127Z,45.16
2023-01-31T02:52:03.106Z,45.17
2023-01-31T02:54:35.729Z,45.24
2023-01-31T02:57:09.059Z,45.23
2023-01-31T02:59:42.055Z,45.20
2023-01-31T03:02:14.902Z,45.24
2023-01-31T03:04:48.147Z,45.20
2023-01-31T03:07:21.108Z,45.27
2023-01-31T03:09:54.145Z,45.29
2023-01-31T03:12:27.172Z,45.19
2023-01-31T03:15:00.150Z,45.28
2023-01-31T03:17:33.197Z,45.25
2023-01-31T03:20:06.061Z,45.33
2023-01-31T03:22:39.160Z,45.40
2023-01-31T03:25:12.061Z,45.47
2023-01-31T03:27:45.167Z,45.51
2023-01-31T03:30:18.569Z,45.55
2023-01-31T03:32:51.161Z,45.52
2023-01-31T03:35:24.079Z,45.53
2023-01-31T03:37:57.103Z,45.62
2023-01-31T03:40:30.185Z,45.49
2023-01-31T03:43:03.111Z,45.54
2023-01-31T03:45:36.227Z,45.51
2023-01-31T03:48:09.133Z,45.48
2023-01-31T03:50:41.981Z,45.50
2023-01-31T03:53:15.142Z,45.56
2023-01-31T03:55:48.096Z,45.47
2023-01-31T03:58:21.222Z,45.58
2023-01-31T04:00:54.145Z,45.55
2023-01-31T04:03:27.245Z,45.58
2023-01-31T04:06:14.559Z,45.49
2023-01-31T04:08:47.240Z,45.53
2023-01-31T04:11:20.266Z,45.53
2023-01-31T04:13:53.189Z,45.53
2023-01-31T04:16:26.208Z,45.53
2023-01-31T04:18:59.239Z,45.57
2023-01-31T04:21:32.211Z,45.49
2023-01-31T04:24:05.536Z,45.39
2023-01-31T04:26:39.218Z,45.47
2023-01-31T04:29:12.161Z,45.46
2023-01-31T04:31:45.290Z,45.43
2023-01-31T04:34:18.157Z,45.39
2023-01-31T04:36:51.220Z,45.37
2023-01-31T04:39:24.326Z,45.40
2023-01-31T04:41:56.942Z,45.42
2023-01-31T04:44:29.953Z,45.37
2023-01-31T04:47:03.038Z,45.38
2023-01-31T04:49:36.586Z,45.38
2023-01-31T04:52:09.454Z,45.36
2023-01-31T04:54:42.355Z,45.35
2023-01-31T04:57:15.936Z,45.31
2023-01-31T04:59:49.219Z,45.38
2023-01-31T05:02:22.045Z,45.31
2023-01-31T05:04:54.980Z,45.39
2023-01-31T05:07:31.510Z,45.28
2023-01-31T05:10:03.979Z,45.38
2023-01-31T05:12:37.313Z,45.45
2023-01-31T05:15:10.218Z,45.25
2023-01-31T05:17:43.291Z,45.29
2023-01-31T05:20:16.303Z,45.25
2023-01-31T05:22:49.388Z,45.19
2023-01-31T05:25:22.629Z,44.99
2023-01-31T05:27:55.098Z,45.05
2023-01-31T05:30:28.285Z,45.06
2023-01-31T05:33:01.280Z,45.10
2023-01-31T05:35:34.391Z,45.18
2023-01-31T05:38:07.619Z,45.19
2023-01-31T05:40:41.227Z,45.24
2023-01-31T05:43:14.296Z,45.24
2023-01-31T05:46:01.513Z,45.20
2023-01-31T05:48:34.469Z,45.22
2023-01-31T05:51:07.308Z,45.09
2023-01-31T05:53:40.457Z,44.87
2023-01-31T05:56:14.069Z,44.69
2023-01-31T05:58:47.360Z,44.40
2023-01-31T06:01:22.097Z,44.20
2023-01-31T06:03:53.477Z,44.29
2023-01-31T06:06:26.201Z,44.38
2023-01-31T06:09:00.193Z,44.41
2023-01-31T06:11:32.329Z,44.45
2023-01-31T06:14:05.211Z,44.40
2023-01-31T06:16:38.427Z,44.45
2023-01-31T06:19:11.111Z,44.46
2023-01-31T06:21:44.044Z,44.45
2023-01-31T06:24:17.327Z,44.45
2023-01-31T06:26:50.321Z,44.46
2023-01-31T06:29:23.129Z,44.47
2023-01-31T06:31:56.529Z,44.45
2023-01-31T06:34:29.412Z,44.46
2023-01-31T06:37:02.592Z,44.45
2023-01-31T06:39:36.487Z,44.44
2023-01-31T06:42:09.224Z,44.42
2023-01-31T06:44:42.400Z,44.37
2023-01-31T06:47:15.496Z,44.45
2023-01-31T06:49:48.508Z,44.28
2023-01-31T06:52:21.403Z,44.39
2023-01-31T06:54:54.433Z,44.35
2023-01-31T06:57:27.506Z,44.40
2023-01-31T07:00:00.485Z,44.38
2023-01-31T07:02:33.525Z,44.29
2023-01-31T07:05:06.498Z,44.31
2023-01-31T07:07:39.499Z,44.36
2023-01-31T07:10:12.490Z,44.34
2023-01-31T07:12:45.397Z,44.31
2023-01-31T07:15:32.607Z,44.30
2023-01-31T07:18:05.571Z,44.33
2023-01-31T07:20:38.175Z,44.29
2023-01-31T07:23:11.403Z,44.28
2023-01-31T07:25:44.440Z,44.28
2023-01-31T07:28:17.499Z,44.29
2023-01-31T07:30:50.778Z,44.25
2023-01-31T07:33:23.225Z,44.26
2023-01-31T07:35:56.631Z,44.25
2023-01-31T07:38:29.989Z,41.31
2023-01-31T07:41:02.441Z,35.01
2023-01-31T07:43:35.680Z,33.85
2023-01-31T07:46:09.582Z,33.26
2023-01-31T07:48:42.470Z,33.29
2023-01-31T07:51:15.596Z,33.43
2023-01-31T07:53:49.114Z,33.51
2023-01-31T07:56:35.519Z,33.73
2023-01-31T07:59:08.615Z,34.08
2023-01-31T08:01:41.461Z,34.04
2023-01-31T08:04:21.495Z,33.97
2023-01-31T08:06:47.630Z,34.19
2023-01-31T08:09:20.383Z,34.34
2023-01-31T08:12:07.239Z,34.49
2023-01-31T08:14:40.321Z,34.64
2023-01-31T08:17:13.589Z,34.75
2023-01-31T08:19:46.431Z,34.93
2023-01-31T08:22:19.826Z,34.95
2023-01-31T08:24:53.725Z,35.14
2023-01-31T08:27:27.607Z,35.19
2023-01-31T08:30:00.518Z,35.23
2023-01-31T08:32:33.649Z,35.39
2023-01-31T08:35:06.582Z,35.31
2023-01-31T08:37:39.850Z,35.51
2023-01-31T08:40:13.571Z,35.60
2023-01-31T08:42:46.566Z,37.63
2023-01-31T08:45:20.093Z,38.40
2023-01-31T08:47:52.585Z,38.94
2023-01-31T08:50:27.851Z,39.18
2023-01-31T08:52:58.701Z,39.15
2023-01-31T08:55:31.680Z,39.34
2023-01-31T08:58:04.617Z,39.44
2023-01-31T09:00:37.417Z,39.48
2023-01-31T09:03:10.652Z,39.56
2023-01-31T09:05:43.717Z,39.61
2023-01-31T09:08:16.750Z,39.69
2023-01-31T09:10:49.676Z,39.70
2023-01-31T09:13:22.610Z,39.65
2023-01-31T09:15:55.670Z,39.67
2023-01-31T09:18:28.851Z,39.69
2023-01-31T09:21:01.649Z,39.70
2023-01-31T09:23:34.705Z,39.75
2023-01-31T09:26:07.784Z,39.79
2023-01-31T09:28:40.759Z,39.65
2023-01-31T09:31:13.691Z,39.88
2023-01-31T09:33:46.698Z,39.87
2023-01-31T09:36:19.718Z,39.83
2023-01-31T09:38:52.699Z,39.71
2023-01-31T09:41:25.645Z,39.71
2023-01-31T09:44:04.588Z,39.76
2023-01-31T09:46:37.860Z,39.73
2023-01-31T09:49:10.785Z,39.74
2023-01-31T09:51:46.631Z,39.67
2023-01-31T09:54:19.809Z,39.88
2023-01-31T09:56:52.765Z,39.79
2023-01-31T09:59:25.687Z,40.08
2023-01-31T10:01:59.265Z,40.34
2023-01-31T10:04:31.763Z,40.05
2023-01-31T10:07:04.725Z,39.95
2023-01-31T10:09:37.848Z,39.89
2023-01-31T10:12:10.733Z,39.90
2023-01-31T10:14:43.715Z,39.86
2023-01-31T10:17:16.601Z,39.91
2023-01-31T10:19:49.836Z,39.91
2023-01-31T10:22:22.698Z,40.00
2023-01-31T10:24:55.751Z,40.00
2023-01-31T10:27:29.105Z,40.03
2023-01-31T10:30:01.482Z,40.06
2023-01-31T10:32:34.605Z,40.08
2023-01-31T10:35:07.920Z,40.10
2023-01-31T10:37:40.628Z,40.17
2023-01-31T10:40:13.817Z,40.20
2023-01-31T10:42:46.549Z,40.20
2023-01-31T10:45:19.979Z,40.26
2023-01-31T10:47:55.693Z,40.26
2023-01-31T10:50:28.675Z,40.31
2023-01-31T10:53:01.730Z,40.37
2023-01-31T10:55:34.554Z,40.42
2023-01-31T10:58:21.774Z,40.46
2023-01-31T11:00:54.932Z,40.45
2023-01-31T11:03:27.741Z,40.49
2023-01-31T11:06:00.864Z,40.54
2023-01-31T11:08:33.876Z,40.57
2023-01-31T11:11:06.843Z,40.57
2023-01-31T11:13:39.740Z,40.59
2023-01-31T11:16:12.662Z,40.60
2023-01-31T11:18:45.524Z,40.65
2023-01-31T11:21:18.553Z,40.67
2023-01-31T11:23:51.700Z,40.78
2023-01-31T11:26:24.677Z,40.78
2023-01-31T11:28:57.606Z,40.81
2023-01-31T11:31:30.835Z,40.81
2023-01-31T11:34:03.547Z,40.84
2023-01-31T11:36:36.884Z,40.80
2023-01-31T11:39:09.812Z,40.84
2023-01-31T11:41:42.886Z,40.84
2023-01-31T11:44:15.844Z,40.86
2023-01-31T11:46:48.579Z,40.88
2023-01-31T11:49:21.844Z,40.86
2023-01-31T11:51:54.963Z,40.88
2023-01-31T11:54:27.942Z,40.89
2023-01-31T11:57:14.835Z,40.88
2023-01-31T11:59:47.875Z,40.91
2023-01-31T12:02:20.999Z,40.94
2023-01-31T12:04:53.921Z,40.94
2023-01-31T12:07:26.933Z,40.96
2023-01-31T12:09:59.943Z,40.98
2023-01-31T12:12:33.036Z,41.02
2023-01-31T12:15:05.928Z,41.01
2023-01-31T12:17:39.143Z,41.00
2023-01-31T12:20:26.956Z,41.06
2023-01-31T12:22:45.937Z,41.04
2023-01-31T12:25:19.285Z,41.10
2023-01-31T12:27:51.976Z,41.05
2023-01-31T12:30:38.846Z,41.08
2023-01-31T12:33:11.934Z,41.10
2023-01-31T12:35:44.997Z,41.10
2023-01-31T12:38:17.965Z,41.13
2023-01-31T12:40:50.964Z,41.13
2023-01-31T12:43:24.105Z,41.12
2023-01-31T12:45:57.122Z,41.15
2023-01-31T12:48:29.981Z,41.18
2023-01-31T12:51:02.993Z,41.17
2023-01-31T12:53:35.666Z,41.15
2023-01-31T12:56:08.701Z,41.18
2023-01-31T12:58:41.848Z,41.18
2023-01-31T13:01:14.823Z,41.23
2023-01-31T13:03:47.806Z,41.25
2023-01-31T13:06:20.901Z,41.25
2023-01-31T13:09:06.937Z,41.24
2023-01-31T13:11:26.793Z,41.28
2023-01-31T13:14:00.235Z,41.29
2023-01-31T13:16:34.112Z,41.28
2023-01-31T13:19:07.086Z,41.30
2023-01-31T13:21:40.095Z,41.31
2023-01-31T13:24:13.163Z,41.29
2023-01-31T13:26:47.076Z,41.32
2023-01-31T13:29:20.148Z,41.33
2023-01-31T13:31:53.165Z,41.24
2023-01-31T13:34:26.079Z,41.13
2023-01-31T13:36:58.805Z,41.20
2023-01-31T13:39:45.994Z,41.36
2023-01-31T13:42:18.922Z,41.38
2023-01-31T13:44:52.030Z,41.39
2023-01-31T13:47:25.128Z,41.41
2023-01-31T13:49:57.988Z,41.46
2023-01-31T13:52:31.179Z,41.49
2023-01-31T13:55:03.933Z,41.52
2023-01-31T13:57:37.260Z,41.53
2023-01-31T14:00:10.973Z,41.59
2023-01-31T14:02:44.126Z,41.60
2023-01-31T14:05:16.847Z,41.63
2023-01-31T14:07:50.179Z,41.75
2023-01-31T14:10:22.808Z,41.73
2023-01-31T14:12:55.885Z,41.80
2023-01-31T14:15:29.186Z,41.83
2023-01-31T14:18:02.057Z,41.81
2023-01-31T14:20:49.172Z,41.86
2023-01-31T14:23:22.142Z,41.85
2023-01-31T14:25:55.070Z,41.89
2023-01-31T14:28:31.196Z,41.90
2023-01-31T14:31:04.295Z,41.95
2023-01-31T14:33:37.230Z,41.84
2023-01-31T14:36:09.841Z,41.86
2023-01-31T14:38:43.265Z,41.95
2023-01-31T14:41:16.071Z,42.00
2023-01-31T14:43:48.896Z,42.03
2023-01-31T14:46:22.205Z,42.04
2023-01-31T14:48:55.296Z,42.09
2023-01-31T14:51:28.098Z,42.04
2023-01-31T14:54:00.936Z,42.07
2023-01-31T14:56:34.108Z,42.06
2023-01-31T14:59:07.219Z,42.09
2023-01-31T15:01:40.158Z,42.08
2023-01-31T15:04:13.177Z,42.13
2023-01-31T15:06:46.166Z,42.09
2023-01-31T15:09:19.167Z,42.09
2023-01-31T15:11:52.142Z,42.13
2023-01-31T15:14:34.124Z,42.14
2023-01-31T15:16:58.020Z,42.17
2023-01-31T15:19:30.973Z,42.19
2023-01-31T15:22:03.961Z,42.18
2023-01-31T15:24:37.015Z,42.17
2023-01-31T15:27:09.920Z,42.19
2023-01-31T15:29:43.244Z,42.15
2023-01-31T15:32:15.958Z,42.14
2023-01-31T15:34:49.190Z,42.18
2023-01-31T15:37:22.340Z,42.20
2023-01-31T15:39:54.955Z,42.21
2023-01-31T15:42:28.265Z,42.21
2023-01-31T15:45:00.974Z,42.28
2023-01-31T15:47:34.226Z,42.25
2023-01-31T15:50:07.124Z,42.21
2023-01-31T15:52:40.185Z,42.23
2023-01-31T15:55:12.983Z,42.22
2023-01-31T15:57:46.307Z,42.22
2023-01-31T16:00:19.168Z,42.28
2023-01-31T16:02:52.328Z,42.26
2023-01-31T16:05:25.017Z,42.25
2023-01-31T16:07:58.087Z,42.26
2023-01-31T16:10:31.171Z,42.24
2023-01-31T16:13:04.029Z,42.24
2023-01-31T16:15:37.148Z,42.29
2023-01-31T16:18:10.276Z,42.27
2023-01-31T16:20:43.256Z,42.30
2023-01-31T16:23:15.994Z,42.34
2023-01-31T16:25:49.303Z,42.31
2023-01-31T16:28:22.379Z,42.36
2023-01-31T16:33:45.172Z,42.42
2023-01-31T16:36:20.040Z,42.41
2023-01-31T16:39:00.735Z,42.45
2023-01-31T16:41:34.778Z,42.45
2023-01-31T16:44:08.122Z,42.46
2023-01-31T16:46:41.359Z,42.49
2023-01-31T16:49:14.080Z,42.51
2023-01-31T16:51:47.150Z,42.52
2023-01-31T16:54:20.160Z,42.49
2023-01-31T16:56:53.287Z,42.50
2023-01-31T16:59:26.360Z,42.50
2023-01-31T17:01:59.079Z,42.53
2023-01-31T17:04:32.092Z,42.55
2023-01-31T17:07:05.175Z,42.57
2023-01-31T17:09:38.285Z,42.54
2023-01-31T17:12:11.135Z,42.58
2023-01-31T17:14:44.358Z,42.59
2023-01-31T17:17:22.033Z,42.59
2023-01-31T17:19:50.394Z,42.59
2023-01-31T17:22:23.479Z,42.61
2023-01-31T17:24:59.298Z,42.62
2023-01-31T17:27:32.498Z,42.67
2023-01-31T17:30:05.305Z,42.63
2023-01-31T17:32:38.286Z,42.62
2023-01-31T17:35:11.386Z,42.59
2023-01-31T17:37:44.233Z,42.51
2023-01-31T17:40:17.106Z,42.61
2023-01-31T17:42:50.181Z,42.67
2023-01-31T17:45:23.869Z,42.53
2023-01-31T17:47:56.393Z,42.67
2023-01-31T17:50:29.262Z,42.71
2023-01-31T17:53:02.320Z,42.79
2023-01-31T17:55:35.409Z,42.82
2023-01-31T17:58:08.364Z,42.80
2023-01-31T18:00:41.291Z,42.80
2023-01-31T18:03:14.208Z,42.83
2023-01-31T18:05:47.382Z,42.81
2023-01-31T18:08:20.499Z,42.86
2023-01-31T18:10:53.264Z,42.85
2023-01-31T18:13:26.247Z,42.82
2023-01-31T18:15:59.382Z,42.86
2023-01-31T18:18:32.443Z,42.85
2023-01-31T18:21:08.533Z,42.85
2023-01-31T18:23:41.279Z,42.85
2023-01-31T18:26:14.236Z,42.86
2023-01-31T18:28:47.286Z,42.86
2023-01-31T18:31:20.549Z,42.87
2023-01-31T18:33:53.272Z,42.88
2023-01-31T18:36:26.417Z,42.89
2023-01-31T18:38:59.414Z,42.86
2023-01-31T18:41:32.429Z,42.84
2023-01-31T18:44:07.130Z,42.96
2023-01-31T18:46:40.389Z,42.95
2023-01-31T18:49:13.242Z,42.93
2023-01-31T18:51:46.437Z,42.93
2023-01-31T18:54:33.370Z,42.91
2023-01-31T18:57:06.384Z,42.90
2023-01-31T18:59:39.475Z,42.89
2023-01-31T19:02:12.569Z,42.88
2023-01-31T19:04:45.338Z,42.89
2023-01-31T19:07:18.322Z,42.84
2023-01-31T19:09:51.397Z,42.92
2023-01-31T19:12:24.440Z,42.90
2023-01-31T19:15:11.195Z,42.92
2023-01-31T19:17:44.467Z,42.93
2023-01-31T19:20:17.539Z,42.99
2023-01-31T19:22:50.333Z,42.93
2023-01-31T19:25:23.663Z,42.93
2023-01-31T19:27:56.343Z,42.97
2023-01-31T19:30:29.468Z,42.97
2023-01-31T19:33:02.565Z,42.97
2023-01-31T19:35:35.575Z,42.96
2023-01-31T19:38:08.438Z,42.96
2023-01-31T19:40:41.311Z,42.97
2023-01-31T19:43:15.478Z,43.00
2023-01-31T19:45:48.481Z,43.00
2023-01-31T19:48:21.511Z,42.99
2023-01-31T19:50:54.483Z,43.02
2023-01-31T19:53:27.462Z,43.01
2023-01-31T19:56:00.302Z,43.04
2023-01-31T19:58:33.536Z,43.12
2023-01-31T20:01:06.584Z,43.09
2023-01-31T20:03:39.484Z,43.10
2023-01-31T20:06:12.339Z,43.10
2023-01-31T20:08:45.691Z,43.07
2023-01-31T20:11:18.529Z,43.08
2023-01-31T20:13:51.622Z,43.06
2023-01-31T20:16:24.761Z,43.08
2023-01-31T20:18:57.418Z,43.13
2023-01-31T20:21:30.758Z,43.14
2023-01-31T20:24:03.383Z,43.17
2023-01-31T20:26:36.599Z,43.13
2023-01-31T20:29:09.653Z,43.20
2023-01-31T20:31:42.685Z,43.16
2023-01-31T20:34:15.431Z,43.16
2023-01-31T20:36:48.443Z,43.21
2023-01-31T20:39:21.409Z,43.24
2023-01-31T20:41:54.564Z,43.22
2023-01-31T20:44:27.556Z,43.23
2023-01-31T20:47:00.422Z,43.23
2023-01-31T20:49:33.728Z,43.23
2023-01-31T20:52:06.420Z,43.28
2023-01-31T20:54:39.757Z,43.29
2023-01-31T20:57:12.423Z,43.27
2023-01-31T20:59:45.592Z,43.23
2023-01-31T21:02:18.511Z,43.20
2023-01-31T21:04:51.476Z,43.18
2023-01-31T21:07:24.792Z,43.21
2023-01-31T21:09:57.629Z,43.26
2023-01-31T21:12:30.769Z,43.23
2023-01-31T21:15:03.753Z,43.25
2023-01-31T21:17:40.419Z,43.30
2023-01-31T21:20:09.460Z,43.27
2023-01-31T21:22:42.622Z,43.05
2023-01-31T21:25:15.739Z,43.17
2023-01-31T21:27:48.748Z,43.19
2023-01-31T21:30:22.012Z,43.28
2023-01-31T21:32:54.489Z,43.24
2023-01-31T21:35:27.491Z,43.29
2023-01-31T21:38:00.650Z,43.28
2023-01-31T21:40:33.669Z,43.26
2023-01-31T21:43:07.191Z,43.27
2023-01-31T21:45:40.664Z,43.26
2023-01-31T21:48:15.508Z,42.99
2023-01-31T21:50:46.693Z,42.98
2023-01-31T21:53:19.678Z,43.11
2023-01-31T21:55:52.663Z,43.20
2023-01-31T21:58:25.517Z,43.07
2023-01-31T22:00:58.728Z,43.12
2023-01-31T22:03:31.701Z,43.20
2023-01-31T22:06:04.817Z,43.18
2023-01-31T22:08:37.888Z,43.22
2023-01-31T22:11:10.847Z,43.29
2023-01-31T22:13:43.893Z,43.28
2023-01-31T22:16:17.013Z,43.37
2023-01-31T22:18:49.811Z,43.30
2023-01-31T22:21:22.656Z,43.38
2023-01-31T22:23:55.804Z,43.38
2023-01-31T22:26:28.989Z,43.34
2023-01-31T22:29:01.865Z,43.38
2023-01-31T22:31:35.047Z,43.45
2023-01-31T22:34:07.896Z,43.46
2023-01-31T22:36:40.889Z,43.50
2023-01-31T22:39:13.815Z,43.48
2023-01-31T22:41:46.871Z,43.57
2023-01-31T22:44:19.846Z,43.51
2023-01-31T22:46:53.144Z,43.53
2023-01-31T22:49:25.839Z,43.58
2023-01-31T22:51:58.902Z,43.55
2023-01-31T22:54:31.933Z,43.55
2023-01-31T22:57:04.912Z,43.58
2023-01-31T22:59:37.991Z,43.55
2023-01-31T23:02:10.897Z,43.66
2023-01-31T23:04:44.037Z,43.69
2023-01-31T23:07:16.876Z,43.77
2023-01-31T23:09:49.874Z,43.82
2023-01-31T23:12:22.976Z,43.80
2023-01-31T23:15:01.790Z,43.81
2023-01-31T23:17:35.021Z,43.82
2023-01-31T23:20:08.012Z,43.91
2023-01-31T23:22:40.964Z,43.88
2023-01-31T23:25:14.041Z,43.84
2023-01-31T23:27:47.052Z,43.88
2023-01-31T23:30:20.373Z,43.87
2023-01-31T23:32:53.067Z,44.00
2023-01-31T23:35:25.923Z,43.98
2023-01-31T23:37:59.039Z,44.02
2023-01-31T23:40:32.035Z,44.11
2023-01-31T23:43:05.101Z,44.14
2023-01-31T23:45:37.911Z,44.14
2023-01-31T23:48:24.894Z,44.13
2023-01-31T23:50:58.064Z,44.12
2023-01-31T23:53:30.955Z,44.19
2023-01-31T23:56:03.972Z,44.24
2023-01-31T23:58:37.131Z,44.25
